createdAt,value
2023-01-21T00:03:08.802Z,6.41
2023-01-21T00:08:10.433Z,6.69
2023-01-21T00:13:16.517Z,6.44
2023-01-21T00:18:18.311Z,6.53
2023-01-21T00:23:20.211Z,6.05
2023-01-21T00:28:22.361Z,5.94
2023-01-21T00:33:24.267Z,5.59
2023-01-21T00:38:26.096Z,4.77
2023-01-21T00:43:28.247Z,4.65
2023-01-21T00:48:34.597Z,4.46
2023-01-21T00:53:41.926Z,4.59
2023-01-21T00:58:43.674Z,4.60
2023-01-21T01:03:47.112Z,4.88
2023-01-21T01:08:49.839Z,4.91
2023-01-21T01:13:52.147Z,4.74
2023-01-21T01:18:54.173Z,5.20
2023-01-21T01:23:57.700Z,5.18
2023-01-21T01:29:00.442Z,4.53
2023-01-21T01:34:02.219Z,4.60
2023-01-21T01:39:05.238Z,4.47
2023-01-21T01:44:45.778Z,4.80
2023-01-21T01:49:48.369Z,4.21
2023-01-21T01:54:54.905Z,4.71
2023-01-21T01:59:57.173Z,5.14
2023-01-21T02:05:04.583Z,5.08
2023-01-21T02:10:11.867Z,5.13
2023-01-21T02:15:13.578Z,4.65
2023-01-21T02:20:33.856Z,4.70
2023-01-21T02:25:55.144Z,4.50
2023-01-21T02:31:10.581Z,4.96
2023-01-21T02:36:43.444Z,4.86
2023-01-21T02:42:06.503Z,5.11
2023-01-21T02:47:38.216Z,4.98
2023-01-21T02:52:39.938Z,4.25
2023-01-21T02:57:44.670Z,4.22
2023-01-21T03:03:20.271Z,3.72
2023-01-21T03:08:30.519Z,3.84
2023-01-21T03:14:00.793Z,3.96
2023-01-21T03:19:06.730Z,4.04
2023-01-21T03:24:11.027Z,3.80
2023-01-21T03:29:17.559Z,3.71
2023-01-21T03:34:20.285Z,3.65
2023-01-21T03:39:42.763Z,3.68
2023-01-21T03:44:46.119Z,3.34
2023-01-21T03:49:52.325Z,3.38
2023-01-21T03:54:54.455Z,3.32
2023-01-21T03:59:56.350Z,3.62
2023-01-21T04:04:58.421Z,3.58
2023-01-21T04:10:00.165Z,3.37
2023-01-21T04:15:05.068Z,3.85
2023-01-21T04:20:08.219Z,4.67
2023-01-21T04:25:10.114Z,4.47
2023-01-21T04:30:12.011Z,4.47
2023-01-21T04:35:13.826Z,4.30
2023-01-21T04:40:15.929Z,4.20
2023-01-21T04:45:17.967Z,4.53
2023-01-21T04:50:19.782Z,5.11
2023-01-21T04:55:21.486Z,4.70
2023-01-21T05:00:23.515Z,4.76
2023-01-21T05:05:25.308Z,4.20
2023-01-21T05:10:27.121Z,4.17
2023-01-21T05:15:29.215Z,3.41
2023-01-21T05:20:31.035Z,3.30
2023-01-21T05:25:32.652Z,3.09
2023-01-21T05:30:34.434Z,3.26
2023-01-21T05:35:36.150Z,3.27
2023-01-21T05:40:37.965Z,3.59
2023-01-21T05:45:39.658Z,3.68
2023-01-21T05:50:41.260Z,3.14
2023-01-21T05:55:43.112Z,2.78
2023-01-21T06:00:56.423Z,2.78
2023-01-21T06:05:58.192Z,2.33
2023-01-21T06:11:00.025Z,2.50
2023-01-21T06:16:01.902Z,2.73
2023-01-21T06:21:03.741Z,2.58
2023-01-21T06:26:05.485Z,2.52
2023-01-21T06:31:07.354Z,2.62
2023-01-21T06:36:09.444Z,2.63
2023-01-21T06:41:11.557Z,2.70
2023-01-21T06:46:13.874Z,2.44
2023-01-21T06:51:15.681Z,3.00
2023-01-21T06:56:17.658Z,3.47
2023-01-21T07:01:19.353Z,2.97
2023-01-21T07:06:22.465Z,3.26
2023-01-21T07:11:28.262Z,3.27
2023-01-21T07:16:30.023Z,3.01
2023-01-21T07:21:31.868Z,3.16
2023-01-21T07:26:37.850Z,3.08
2023-01-21T07:31:39.799Z,3.50
2023-01-21T07:36:41.669Z,3.54
2023-01-21T07:41:46.161Z,3.16
2023-01-21T07:46:47.837Z,2.78
2023-01-21T07:51:49.454Z,3.06
2023-01-21T07:56:51.133Z,3.46
2023-01-21T08:01:53.080Z,3.44
2023-01-21T08:06:57.155Z,3.38
2023-01-21T08:11:59.073Z,3.84
2023-01-21T08:17:01.478Z,3.38
2023-01-21T08:22:03.303Z,3.38
2023-01-21T08:27:05.044Z,3.44
2023-01-21T08:32:06.818Z,3.77
2023-01-21T08:37:08.552Z,3.65
2023-01-21T08:42:10.197Z,3.87
2023-01-21T08:47:11.898Z,3.62
2023-01-21T08:52:13.598Z,3.58
2023-01-21T08:57:15.430Z,4.03
2023-01-21T09:02:17.146Z,3.78
2023-01-21T09:07:19.005Z,3.65
2023-01-21T09:12:20.959Z,3.86
2023-01-21T09:17:23.352Z,3.87
2023-01-21T09:22:25.118Z,3.77
2023-01-21T09:27:28.274Z,4.00
2023-01-21T09:32:34.201Z,4.00
2023-01-21T09:37:36.025Z,4.02
2023-01-21T09:42:37.759Z,3.77
2023-01-21T09:47:43.753Z,3.96
2023-01-21T09:52:48.759Z,4.02
2023-01-21T09:58:20.143Z,4.05
2023-01-21T10:03:36.230Z,4.36
2023-01-21T10:08:48.951Z,4.12
2023-01-21T10:13:56.559Z,4.37
2023-01-21T10:19:01.310Z,4.40
2023-01-21T10:24:11.939Z,4.56
2023-01-21T10:29:18.950Z,4.56
2023-01-21T10:34:20.697Z,4.97
2023-01-21T10:39:31.334Z,5.11
2023-01-21T10:44:53.162Z,5.28
2023-01-21T10:50:00.658Z,5.64
2023-01-21T10:55:17.692Z,5.51
2023-01-21T11:00:33.558Z,5.35
2023-01-21T11:05:35.744Z,5.15
2023-01-21T11:10:39.976Z,5.30
2023-01-21T11:15:53.286Z,5.39
2023-01-21T11:20:59.225Z,5.44
2023-01-21T11:26:04.211Z,5.07
2023-01-21T11:31:27.196Z,4.86
2023-01-21T11:36:29.255Z,4.75
2023-01-21T11:41:31.869Z,4.78
2023-01-21T11:46:39.524Z,4.77
2023-01-21T11:51:44.807Z,5.03
2023-01-21T11:56:56.469Z,4.92
2023-01-21T12:02:03.670Z,4.77
2023-01-21T12:07:05.726Z,4.70
2023-01-21T12:12:56.620Z,4.68
2023-01-21T12:18:20.547Z,5.00
2023-01-21T12:23:40.959Z,4.98
2023-01-21T12:28:48.880Z,4.71
2023-01-21T12:33:57.947Z,5.01
2023-01-21T12:39:16.713Z,4.98
2023-01-21T12:44:27.299Z,4.86
2023-01-21T12:49:53.774Z,4.95
2023-01-21T12:55:23.279Z,5.42
2023-01-21T13:00:29.382Z,5.46
2023-01-21T13:05:53.156Z,5.68
2023-01-21T13:11:03.383Z,5.94
2023-01-21T13:16:08.882Z,5.69
2023-01-21T13:21:35.389Z,6.05
2023-01-21T13:26:50.989Z,6.25
2023-01-21T13:32:17.524Z,6.48
2023-01-21T13:37:42.273Z,6.76
2023-01-21T13:42:57.792Z,7.11
2023-01-21T13:48:22.216Z,6.74
2023-01-21T13:53:35.415Z,6.59
2023-01-21T13:58:51.559Z,6.86
2023-01-21T14:04:04.731Z,7.06
2023-01-21T14:09:18.311Z,7.06
2023-01-21T14:14:46.850Z,6.79
2023-01-21T14:20:24.104Z,6.77
2023-01-21T14:25:52.794Z,7.05
2023-01-21T14:31:13.874Z,7.10
2023-01-21T14:36:24.063Z,6.70
2023-01-21T14:42:04.625Z,6.53
2023-01-21T14:47:22.821Z,6.51
2023-01-21T14:52:37.777Z,6.54
2023-01-21T14:57:42.766Z,6.29
2023-01-21T15:02:53.336Z,5.99
2023-01-21T15:08:07.290Z,5.89
2023-01-21T15:13:34.298Z,5.96
2023-01-21T15:18:39.240Z,6.11
2023-01-21T15:23:43.950Z,6.01
2023-01-21T15:28:55.907Z,6.07
2023-01-21T15:34:01.813Z,5.93
2023-01-21T15:39:13.833Z,6.02
2023-01-21T15:44:18.506Z,6.35
2023-01-21T15:49:38.456Z,6.64
2023-01-21T15:54:52.452Z,6.95
2023-01-21T16:00:22.303Z,7.42
2023-01-21T16:05:36.450Z,7.85
2023-01-21T16:11:15.770Z,8.05
2023-01-21T16:16:32.385Z,8.00
2023-01-21T16:21:36.454Z,7.77
2023-01-21T16:26:38.129Z,7.83
2023-01-21T16:31:59.938Z,7.87
2023-01-21T16:37:06.312Z,7.87
2023-01-21T16:42:23.600Z,7.81
2023-01-21T16:47:33.458Z,7.74
2023-01-21T16:52:35.567Z,7.60
2023-01-21T16:57:37.551Z,7.54
2023-01-21T17:02:39.361Z,7.54
2023-01-21T17:07:51.978Z,7.50
2023-01-21T17:12:58.588Z,7.64
2023-01-21T17:18:01.005Z,7.66
2023-01-21T17:23:07.769Z,7.52
2023-01-21T17:28:29.127Z,7.44
2023-01-21T17:33:31.141Z,7.30
2023-01-21T17:38:39.702Z,7.31
2023-01-21T17:43:49.191Z,7.23
2023-01-21T17:48:54.860Z,7.22
2023-01-21T17:54:03.928Z,7.23
2023-01-21T17:59:34.569Z,7.49
2023-01-21T18:04:36.314Z,7.61
2023-01-21T18:09:38.203Z,7.32
2023-01-21T18:14:40.925Z,7.38
2023-01-21T18:19:42.842Z,7.45
2023-01-21T18:24:44.645Z,7.64
2023-01-21T18:29:48.035Z,7.83
2023-01-21T18:34:49.757Z,7.98
2023-01-21T18:39:51.435Z,7.98
2023-01-21T18:44:53.229Z,8.00
2023-01-21T18:49:54.994Z,8.17
2023-01-21T18:54:58.320Z,8.06
2023-01-21T19:00:00.228Z,7.73
2023-01-21T19:05:02.081Z,7.85
2023-01-21T19:10:04.271Z,7.90
2023-01-21T19:15:08.676Z,7.92
2023-01-21T19:20:20.268Z,7.59
2023-01-21T19:25:25.615Z,7.29
2023-01-21T19:30:32.396Z,7.17
2023-01-21T19:35:59.730Z,7.18
2023-01-21T19:41:01.746Z,7.12
2023-01-21T19:46:03.550Z,7.23
2023-01-21T19:51:05.590Z,7.11
2023-01-21T19:56:23.268Z,6.84
2023-01-21T20:01:25.035Z,6.66
2023-01-21T20:06:30.087Z,6.54
2023-01-21T20:11:31.937Z,6.83
2023-01-21T20:16:34.042Z,6.92
2023-01-21T20:21:40.115Z,6.98
2023-01-21T20:26:44.737Z,6.94
2023-01-21T20:31:46.531Z,6.82
2023-01-21T20:36:49.686Z,6.60
2023-01-21T20:41:51.434Z,6.37
2023-01-21T20:46:54.308Z,6.38
2023-01-21T20:51:56.102Z,6.29
2023-01-21T20:56:57.846Z,6.17
2023-01-21T21:01:59.581Z,6.19
2023-01-21T21:07:01.263Z,6.53
2023-01-21T21:12:03.101Z,6.75
2023-01-21T21:17:09.828Z,6.96
2023-01-21T21:22:11.560Z,7.09
2023-01-21T21:27:13.429Z,7.09
2023-01-21T21:32:15.237Z,6.94
2023-01-21T21:37:16.966Z,7.00
2023-01-21T21:42:37.227Z,6.77
2023-01-21T21:47:57.521Z,6.23
2023-01-21T21:52:59.210Z,6.30
2023-01-21T21:58:00.902Z,6.22
2023-01-21T22:03:02.861Z,6.16
2023-01-21T22:08:04.739Z,6.00
2023-01-21T22:13:09.218Z,5.88
2023-01-21T22:18:10.811Z,5.72
2023-01-21T22:23:12.521Z,5.73
2023-01-21T22:28:14.291Z,5.77
2023-01-21T22:33:16.413Z,5.46
2023-01-21T22:38:19.492Z,5.47
2023-01-21T22:43:21.300Z,5.16
2023-01-21T22:48:23.741Z,4.86
2023-01-21T22:53:26.650Z,4.71
2023-01-21T22:58:30.437Z,4.80
2023-01-21T23:03:32.969Z,4.90
2023-01-21T23:08:37.753Z,4.91
2023-01-21T23:13:39.827Z,5.14
2023-01-21T23:18:42.211Z,4.11
2023-01-21T23:23:44.381Z,2.15
2023-01-21T23:28:47.221Z,2.18
2023-01-21T23:33:54.571Z,3.40
2023-01-21T23:38:56.291Z,3.57
2023-01-21T23:44:01.860Z,3.46
2023-01-21T23:49:03.626Z,3.71
2023-01-21T23:54:05.471Z,4.04
2023-01-21T23:59:07.739Z,4.31
